Time;durP1;ratioP1;P1;durP2;ratioP2;P2;SDS_P1;SDS_P2;PMS_P1;PMS_P2;Temp;Humidity;BMP_temperature;BMP_pressure;BME280_temperature;BME280_humidity;BME280_pressure;Samples;Min_cycle;Max_cycle;Signal;HPM_P1;HPM_P2
2023/03/15 00:01:35;;;;;;;7.63;2.80;;;;;;;;;;5108121;28;20492;-67
2023/03/15 00:04:04;;;;;;;5.53;2.30;;;;;;;;;;5113023;28;20489;-67
2023/03/15 00:06:32;;;;;;;9.00;2.23;;;;;;;;;;5107094;28;20475;-67
2023/03/15 00:08:58;;;;;;;9.47;2.50;;;;;;;;;;5102915;28;20465;-67
2023/03/15 00:11:25;;;;;;;10.17;2.83;;;;;;;;;;5102085;28;20540;-66
2023/03/15 00:13:53;;;;;;;6.20;2.40;;;;;;;;;;5104233;28;20836;-67
2023/03/15 00:16:19;;;;;;;7.40;2.63;;;;;;;;;;5123034;28;20532;-67
2023/03/15 00:18:46;;;;;;;6.50;2.40;;;;;;;;;;5124030;28;20851;-67
2023/03/15 00:21:12;;;;;;;5.70;2.00;;;;;;;;;;5112632;28;20507;-67
2023/03/15 00:23:39;;;;;;;12.83;3.00;;;;;;;;;;5123602;28;20462;-66
2023/03/15 00:26:05;;;;;;;4.70;1.60;;;;;;;;;;5121920;28;20498;-67
2023/03/15 00:28:32;;;;;;;8.80;1.90;;;;;;;;;;5121243;28;20495;-67
2023/03/15 00:31:08;;;;;;;12.50;3.20;;;;;;;;;;5102176;28;20501;-67
2023/03/15 00:33:34;;;;;;;12.57;2.73;;;;;;;;;;5120322;28;20465;-66
2023/03/15 00:36:02;;;;;;;6.80;2.70;;;;;;;;;;5122557;28;20473;-66
2023/03/15 00:38:29;;;;;;;3.03;1.70;;;;;;;;;;5123706;28;20461;-67
2023/03/15 00:40:57;;;;;;;5.80;2.40;;;;;;;;;;5101832;28;20510;-67
2023/03/15 00:43:24;;;;;;;10.63;3.00;;;;;;;;;;5104411;28;20475;-65
2023/03/15 00:45:50;;;;;;;9.67;2.10;;;;;;;;;;5107721;28;20494;-67
2023/03/15 00:48:18;;;;;;;6.63;2.03;;;;;;;;;;5119193;28;20466;-66
2023/03/15 00:50:44;;;;;;;8.67;2.40;;;;;;;;;;5108201;28;20474;-67
2023/03/15 00:53:11;;;;;;;10.00;2.50;;;;;;;;;;5111308;28;20465;-66
2023/03/15 00:55:37;;;;;;;9.73;2.17;;;;;;;;;;5122551;28;20508;-66
2023/03/15 00:58:03;;;;;;;7.83;2.10;;;;;;;;;;5114999;28;20548;-67
2023/03/15 01:00:30;;;;;;;8.00;2.13;;;;;;;;;;5102342;28;20565;-65
2023/03/15 01:02:56;;;;;;;8.30;2.00;;;;;;;;;;5102304;28;20942;-67
2023/03/15 01:05:25;;;;;;;8.40;2.40;;;;;;;;;;5108144;28;20468;-67
2023/03/15 01:07:51;;;;;;;9.90;2.47;;;;;;;;;;5111789;28;20450;-67
2023/03/15 01:10:18;;;;;;;7.87;2.20;;;;;;;;;;5107434;28;20447;-63
2023/03/15 01:12:44;;;;;;;11.00;2.47;;;;;;;;;;5101866;28;20478;-65
2023/03/15 01:15:12;;;;;;;9.53;2.47;;;;;;;;;;5104452;28;20501;-67
2023/03/15 01:17:38;;;;;;;3.83;1.73;;;;;;;;;;5104236;28;20442;-67
2023/03/15 01:20:05;;;;;;;8.50;2.43;;;;;;;;;;5122876;28;20444;-66
2023/03/15 01:22:33;;;;;;;9.60;2.50;;;;;;;;;;5121682;28;20501;-65
2023/03/15 01:25:00;;;;;;;4.73;2.07;;;;;;;;;;5113920;28;20502;-67
2023/03/15 01:27:26;;;;;;;6.77;2.40;;;;;;;;;;5100680;28;20480;-66
2023/03/15 01:29:52;;;;;;;7.93;2.30;;;;;;;;;;5108833;28;20484;-66
2023/03/15 01:32:19;;;;;;;5.47;2.20;;;;;;;;;;5118584;28;20549;-66
2023/03/15 01:34:45;;;;;;;4.10;1.83;;;;;;;;;;5113598;28;20450;-67
2023/03/15 01:37:13;;;;;;;5.70;2.13;;;;;;;;;;5120557;28;20474;-67
2023/03/15 01:39:41;;;;;;;5.73;2.30;;;;;;;;;;5100057;28;20476;-68
2023/03/15 01:42:08;;;;;;;5.53;2.43;;;;;;;;;;5098785;28;20517;-66
2023/03/15 01:44:54;;;;;;;10.10;2.80;;;;;;;;;;5109188;28;20509;-68
2023/03/15 01:47:20;;;;;;;16.03;3.00;;;;;;;;;;5100762;28;20498;-66
2023/03/15 01:49:49;;;;;;;9.10;2.70;;;;;;;;;;5098486;28;20488;-67
2023/03/15 01:52:17;;;;;;;4.47;2.07;;;;;;;;;;5097011;28;20493;-67
2023/03/15 01:54:48;;;;;;;10.53;2.60;;;;;;;;;;5105728;28;20486;-68
2023/03/15 01:57:16;;;;;;;7.53;2.60;;;;;;;;;;5101978;28;20486;-67
2023/03/15 01:59:44;;;;;;;8.50;2.50;;;;;;;;;;5120007;28;20488;-66
2023/03/15 02:02:13;;;;;;;6.53;2.73;;;;;;;;;;5117828;28;20477;-68
2023/03/15 02:04:45;;;;;;;8.50;3.10;;;;;;;;;;5121071;28;20461;-68
2023/03/15 02:07:13;;;;;;;9.13;3.20;;;;;;;;;;5121297;28;20918;-66
2023/03/15 02:09:42;;;;;;;5.03;2.73;;;;;;;;;;5105612;28;20477;-68
2023/03/15 02:12:10;;;;;;;4.93;2.80;;;;;;;;;;5104314;28;20504;-67
2023/03/15 02:14:37;;;;;;;8.97;2.93;;;;;;;;;;5112374;28;20458;-67
2023/03/15 02:17:03;;;;;;;8.93;3.43;;;;;;;;;;5116855;28;20552;-68
2023/03/15 02:19:37;;;;;;;9.83;3.30;;;;;;;;;;5120992;28;20474;-66
2023/03/15 02:22:11;;;;;;;5.73;3.47;;;;;;;;;;5118472;28;20474;-68
2023/03/15 02:24:42;;;;;;;5.63;3.40;;;;;;;;;;5101537;28;20541;-68
2023/03/15 02:27:10;;;;;;;6.23;3.20;;;;;;;;;;5107618;28;20549;-67
2023/03/15 02:29:38;;;;;;;4.00;2.90;;;;;;;;;;5120568;28;20544;-66
2023/03/15 02:32:05;;;;;;;7.70;2.80;;;;;;;;;;5100321;28;20498;-67
2023/03/15 02:34:31;;;;;;;3.03;2.30;;;;;;;;;;5107893;28;20540;-67
2023/03/15 02:36:57;;;;;;;5.03;2.67;;;;;;;;;;5107523;28;20560;-66
2023/03/15 02:39:26;;;;;;;3.57;3.27;;;;;;;;;;5093402;28;20495;-67
2023/03/15 02:41:53;;;;;;;3.70;2.47;;;;;;;;;;5109881;28;20491;-67
2023/03/15 02:44:22;;;;;;;4.13;3.10;;;;;;;;;;5117633;28;20481;-67
2023/03/15 02:46:52;;;;;;;3.53;2.90;;;;;;;;;;5119383;28;21025;-67
2023/03/15 02:49:23;;;;;;;3.00;2.70;;;;;;;;;;5121538;28;20480;-68
2023/03/15 02:51:49;;;;;;;5.37;2.90;;;;;;;;;;5120490;28;20504;-67
2023/03/15 02:54:16;;;;;;;5.77;4.00;;;;;;;;;;5120663;28;20445;-67
2023/03/15 02:56:42;;;;;;;5.27;2.93;;;;;;;;;;5120133;28;20580;-67
2023/03/15 02:59:11;;;;;;;3.63;3.20;;;;;;;;;;5107956;28;20478;-67
2023/03/15 03:01:38;;;;;;;3.50;3.20;;;;;;;;;;5093107;28;20565;-67
2023/03/15 03:04:05;;;;;;;4.67;3.30;;;;;;;;;;5115176;28;20458;-68
2023/03/15 03:06:32;;;;;;;4.20;3.70;;;;;;;;;;5120440;28;20481;-66
2023/03/15 03:08:58;;;;;;;4.70;3.50;;;;;;;;;;5111370;28;20469;-66
2023/03/15 03:11:25;;;;;;;3.10;2.90;;;;;;;;;;5096280;28;20498;-67
2023/03/15 03:13:51;;;;;;;3.37;3.07;;;;;;;;;;5094741;28;20798;-68
2023/03/15 03:16:17;;;;;;;7.80;3.90;;;;;;;;;;5095838;28;20511;-68
2023/03/15 03:18:44;;;;;;;4.30;3.87;;;;;;;;;;5100468;28;20486;-67
2023/03/15 03:21:13;;;;;;;4.90;4.40;;;;;;;;;;5100124;28;20513;-67
2023/03/15 03:23:40;;;;;;;5.13;4.63;;;;;;;;;;5117408;28;20465;-64
2023/03/15 03:26:15;;;;;;;5.10;4.43;;;;;;;;;;5119949;28;20524;-67
2023/03/15 03:28:42;;;;;;;6.27;5.67;;;;;;;;;;5121491;28;20461;-67
2023/03/15 03:31:15;;;;;;;5.00;4.60;;;;;;;;;;5118176;28;20518;-67
2023/03/15 03:33:41;;;;;;;6.73;5.37;;;;;;;;;;5119600;28;20454;-68
2023/03/15 03:36:08;;;;;;;6.07;5.47;;;;;;;;;;5123791;28;20540;-67
2023/03/15 03:38:36;;;;;;;5.40;4.90;;;;;;;;;;5118790;28;20473;-67
2023/03/15 03:41:02;;;;;;;5.13;3.30;;;;;;;;;;5098157;28;20502;-67
2023/03/15 03:43:28;;;;;;;6.73;5.33;;;;;;;;;;5102552;28;20451;-67
2023/03/15 03:45:55;;;;;;;7.53;5.37;;;;;;;;;;5103802;28;20475;-67
2023/03/15 03:48:21;;;;;;;5.30;4.80;;;;;;;;;;5103859;28;20500;-68
2023/03/15 03:50:47;;;;;;;8.63;5.03;;;;;;;;;;5108179;28;20505;-67
2023/03/15 03:53:14;;;;;;;5.47;4.80;;;;;;;;;;5124248;28;20505;-68
2023/03/15 03:55:42;;;;;;;5.17;4.70;;;;;;;;;;5123482;28;20478;-66
2023/03/15 03:58:11;;;;;;;5.60;4.53;;;;;;;;;;5110297;28;20471;-67
2023/03/15 04:00:38;;;;;;;5.10;4.60;;;;;;;;;;5114967;28;20542;-66
2023/03/15 04:03:05;;;;;;;5.13;4.40;;;;;;;;;;5117765;28;20484;-68
2023/03/15 04:05:31;;;;;;;5.63;5.20;;;;;;;;;;5122264;28;20484;-67
2023/03/15 04:07:58;;;;;;;6.20;5.03;;;;;;;;;;5122987;28;20438;-66
2023/03/15 04:10:26;;;;;;;5.33;4.83;;;;;;;;;;5103153;28;20482;-66
2023/03/15 04:12:55;;;;;;;5.17;4.10;;;;;;;;;;5101998;28;20460;-67
2023/03/15 04:15:22;;;;;;;5.23;4.50;;;;;;;;;;5096236;28;20478;-68
2023/03/15 04:17:48;;;;;;;6.23;4.50;;;;;;;;;;5110270;28;20450;-68
2023/03/15 04:20:16;;;;;;;6.50;5.17;;;;;;;;;;5113898;28;20480;-68
2023/03/15 04:22:48;;;;;;;6.97;5.40;;;;;;;;;;5114253;28;20496;-68
2023/03/15 04:25:14;;;;;;;6.20;5.20;;;;;;;;;;5115991;28;20857;-67
2023/03/15 04:27:41;;;;;;;6.60;5.60;;;;;;;;;;5103820;28;20492;-68
2023/03/15 04:30:09;;;;;;;6.70;5.53;;;;;;;;;;5113546;28;20950;-68
2023/03/15 04:32:36;;;;;;;9.03;6.00;;;;;;;;;;5106821;28;20446;-67
2023/03/15 04:35:03;;;;;;;8.70;5.80;;;;;;;;;;5121425;28;20537;-67
2023/03/15 04:37:31;;;;;;;7.33;5.60;;;;;;;;;;5109950;28;20501;-68
2023/03/15 04:39:57;;;;;;;5.60;5.10;;;;;;;;;;5104809;28;20479;-67
2023/03/15 04:42:24;;;;;;;7.50;5.43;;;;;;;;;;5116726;28;20553;-67
2023/03/15 04:44:52;;;;;;;7.23;6.10;;;;;;;;;;5115204;28;20465;-68
2023/03/15 04:47:21;;;;;;;8.50;6.40;;;;;;;;;;5106298;28;20478;-68
2023/03/15 04:49:47;;;;;;;6.73;5.90;;;;;;;;;;5114717;28;20441;-68
2023/03/15 04:52:14;;;;;;;9.00;6.73;;;;;;;;;;5121176;28;20477;-67
2023/03/15 04:54:41;;;;;;;7.93;5.97;;;;;;;;;;5113728;28;20457;-65
2023/03/15 04:57:07;;;;;;;7.50;5.60;;;;;;;;;;5103740;28;20484;-67
2023/03/15 04:59:33;;;;;;;9.10;5.50;;;;;;;;;;5118352;28;20462;-67
2023/03/15 05:02:00;;;;;;;6.90;5.80;;;;;;;;;;5106884;28;20485;-66
2023/03/15 05:04:28;;;;;;;9.67;5.97;;;;;;;;;;5122029;28;20492;-67
2023/03/15 05:06:54;;;;;;;9.93;6.87;;;;;;;;;;5104963;28;20502;-67
2023/03/15 05:09:20;;;;;;;7.60;5.97;;;;;;;;;;5098516;28;20482;-66
2023/03/15 05:11:47;;;;;;;8.60;5.70;;;;;;;;;;5099166;28;20490;-67
2023/03/15 05:14:13;;;;;;;7.57;6.03;;;;;;;;;;5101451;28;20485;-68
2023/03/15 05:16:40;;;;;;;7.73;6.23;;;;;;;;;;5121682;28;20509;-68
2023/03/15 05:19:06;;;;;;;11.07;6.53;;;;;;;;;;5122838;28;20484;-67
2023/03/15 05:21:34;;;;;;;9.83;6.10;;;;;;;;;;5110176;28;20869;-66
2023/03/15 05:24:00;;;;;;;12.47;6.00;;;;;;;;;;5122521;28;20480;-66
2023/03/15 05:26:26;;;;;;;6.90;5.80;;;;;;;;;;5109885;28;20562;-67
2023/03/15 05:28:53;;;;;;;7.50;5.70;;;;;;;;;;5103512;28;20456;-66
2023/03/15 05:31:19;;;;;;;11.43;6.63;;;;;;;;;;5112496;28;20482;-67
2023/03/15 05:33:46;;;;;;;8.63;5.53;;;;;;;;;;5102792;28;20458;-67
2023/03/15 05:36:14;;;;;;;12.50;6.90;;;;;;;;;;5099719;28;20480;-66
2023/03/15 05:38:42;;;;;;;13.63;6.93;;;;;;;;;;5100644;28;20469;-66
2023/03/15 05:41:08;;;;;;;9.23;5.97;;;;;;;;;;5104166;28;20478;-66
2023/03/15 05:43:35;;;;;;;8.67;6.50;;;;;;;;;;5096356;28;20463;-65
2023/03/15 05:46:01;;;;;;;8.70;7.10;;;;;;;;;;5090946;28;20489;-64
2023/03/15 05:48:28;;;;;;;8.53;6.20;;;;;;;;;;5114665;28;20460;-65
2023/03/15 05:50:54;;;;;;;11.30;6.50;;;;;;;;;;5099331;28;20541;-64
2023/03/15 05:53:21;;;;;;;9.07;7.33;;;;;;;;;;5099933;28;20494;-64
2023/03/15 05:55:48;;;;;;;7.80;6.03;;;;;;;;;;5090988;28;20506;-65
2023/03/15 05:58:15;;;;;;;9.40;7.70;;;;;;;;;;5093071;28;20712;-64
2023/03/15 06:00:41;;;;;;;10.43;6.17;;;;;;;;;;5099240;28;20536;-64
2023/03/15 06:03:08;;;;;;;10.90;7.00;;;;;;;;;;5085504;28;20472;-65
2023/03/15 06:05:34;;;;;;;16.60;6.63;;;;;;;;;;5091218;28;20498;-66
2023/03/15 06:08:01;;;;;;;9.13;6.50;;;;;;;;;;5099494;28;20475;-65
2023/03/15 06:10:27;;;;;;;14.10;7.57;;;;;;;;;;5088453;28;20467;-65
2023/03/15 06:12:55;;;;;;;12.50;7.50;;;;;;;;;;5104935;28;20518;-65
2023/03/15 06:15:21;;;;;;;9.53;6.87;;;;;;;;;;5103659;28;20465;-66
2023/03/15 06:17:49;;;;;;;9.33;5.93;;;;;;;;;;5104077;28;20501;-65
2023/03/15 06:20:15;;;;;;;12.40;7.00;;;;;;;;;;5111506;28;20433;-66
2023/03/15 06:22:41;;;;;;;11.93;6.97;;;;;;;;;;5118540;28;20510;-65
2023/03/15 06:25:08;;;;;;;11.70;6.50;;;;;;;;;;5100654;28;20475;-62
2023/03/15 06:27:35;;;;;;;20.07;6.53;;;;;;;;;;5108242;28;20443;-62
2023/03/15 06:30:03;;;;;;;10.77;6.53;;;;;;;;;;5099244;28;20510;-62
2023/03/15 06:32:30;;;;;;;13.07;7.70;;;;;;;;;;5089495;28;20488;-62
2023/03/15 06:34:56;;;;;;;10.10;6.83;;;;;;;;;;5099424;28;20532;-62
2023/03/15 06:37:22;;;;;;;10.03;6.60;;;;;;;;;;5100846;28;20541;-62
2023/03/15 06:39:49;;;;;;;13.80;6.70;;;;;;;;;;5097304;28;20446;-62
2023/03/15 06:42:16;;;;;;;12.03;7.60;;;;;;;;;;5094362;28;20473;-62
2023/03/15 06:44:42;;;;;;;14.93;7.10;;;;;;;;;;5090124;28;20562;-63
2023/03/15 06:47:10;;;;;;;9.37;6.87;;;;;;;;;;5082891;28;20572;-64
2023/03/15 06:49:37;;;;;;;13.87;6.77;;;;;;;;;;5097900;28;20633;-65
2023/03/15 06:52:04;;;;;;;9.30;6.00;;;;;;;;;;5098932;28;20843;-65
2023/03/15 06:54:31;;;;;;;13.13;6.53;;;;;;;;;;5109135;28;20463;-64
2023/03/15 06:56:57;;;;;;;8.57;6.60;;;;;;;;;;5106766;28;20573;-65
2023/03/15 06:59:24;;;;;;;9.27;5.03;;;;;;;;;;5108177;28;20475;-65
2023/03/15 07:01:50;;;;;;;6.50;5.07;;;;;;;;;;5114364;28;20514;-65
2023/03/15 07:04:18;;;;;;;7.27;4.23;;;;;;;;;;5104892;28;20482;-65
2023/03/15 07:06:44;;;;;;;5.57;4.50;;;;;;;;;;5103998;28;20503;-65
2023/03/15 07:09:10;;;;;;;11.13;5.47;;;;;;;;;;5110709;28;20519;-65
2023/03/15 07:11:37;;;;;;;8.50;5.53;;;;;;;;;;5108005;28;20506;-64
2023/03/15 07:14:03;;;;;;;6.03;4.73;;;;;;;;;;5106510;28;20462;-65
2023/03/15 07:16:30;;;;;;;4.87;4.37;;;;;;;;;;5113497;28;20471;-65
2023/03/15 07:18:58;;;;;;;6.00;4.47;;;;;;;;;;5107475;28;20537;-65
2023/03/15 07:21:26;;;;;;;8.57;4.87;;;;;;;;;;5111657;28;21018;-64
2023/03/15 07:23:53;;;;;;;8.33;4.70;;;;;;;;;;5107683;28;20455;-61
2023/03/15 07:26:19;;;;;;;8.90;5.47;;;;;;;;;;5113889;28;20573;-62
2023/03/15 07:28:45;;;;;;;7.97;4.53;;;;;;;;;;5104738;28;20490;-61
2023/03/15 07:31:12;;;;;;;7.13;4.43;;;;;;;;;;5115951;28;20470;-61
2023/03/15 07:33:38;;;;;;;6.80;4.30;;;;;;;;;;5109843;28;20530;-61
2023/03/15 07:36:06;;;;;;;8.17;4.83;;;;;;;;;;5099306;28;20503;-64
2023/03/15 07:38:34;;;;;;;10.27;5.13;;;;;;;;;;5097218;28;20544;-63
2023/03/15 07:41:01;;;;;;;10.43;5.33;;;;;;;;;;5102675;28;20471;-64
2023/03/15 07:43:28;;;;;;;5.40;4.40;;;;;;;;;;5101818;28;20494;-64
2023/03/15 07:45:55;;;;;;;7.60;4.83;;;;;;;;;;5118348;28;20588;-65
2023/03/15 07:48:21;;;;;;;11.73;4.90;;;;;;;;;;5110981;28;20452;-65
2023/03/15 07:50:48;;;;;;;8.87;4.80;;;;;;;;;;5113937;28;20475;-65
2023/03/15 07:53:14;;;;;;;10.47;4.40;;;;;;;;;;5110038;28;20826;-66
2023/03/15 07:55:42;;;;;;;6.50;3.83;;;;;;;;;;5108613;28;21058;-65
2023/03/15 07:58:08;;;;;;;7.63;4.00;;;;;;;;;;5115281;28;20479;-65
2023/03/15 08:00:35;;;;;;;13.00;4.40;;;;;;;;;;5102952;28;20664;-65
2023/03/15 08:03:04;;;;;;;7.20;3.80;;;;;;;;;;5095604;28;20475;-65
2023/03/15 08:05:31;;;;;;;10.93;4.83;;;;;;;;;;5102154;28;20471;-64
2023/03/15 08:07:58;;;;;;;6.80;4.80;;;;;;;;;;5102459;28;20443;-64
2023/03/15 08:10:24;;;;;;;8.67;4.70;;;;;;;;;;5103795;28;20440;-64
2023/03/15 08:12:57;;;;;;;9.00;4.23;;;;;;;;;;5098581;28;20495;-65
2023/03/15 08:15:24;;;;;;;11.67;5.53;;;;;;;;;;5101024;28;20444;-65
2023/03/15 08:17:50;;;;;;;7.07;4.40;;;;;;;;;;5097385;28;20588;-66
2023/03/15 08:20:17;;;;;;;13.40;4.70;;;;;;;;;;5102011;28;20479;-65
2023/03/15 08:22:44;;;;;;;6.57;4.40;;;;;;;;;;5102799;28;20447;-65
2023/03/15 08:25:11;;;;;;;11.43;4.77;;;;;;;;;;5116205;28;20455;-64
2023/03/15 08:27:38;;;;;;;8.27;5.03;;;;;;;;;;5122107;28;20463;-64
2023/03/15 08:30:08;;;;;;;8.27;3.93;;;;;;;;;;5121585;28;20443;-65
2023/03/15 08:32:34;;;;;;;6.77;4.20;;;;;;;;;;5102760;28;20480;-65
2023/03/15 08:35:01;;;;;;;7.40;3.80;;;;;;;;;;5115698;28;20451;-65
2023/03/15 08:37:27;;;;;;;9.20;4.63;;;;;;;;;;5109128;28;20475;-65
2023/03/15 08:40:01;;;;;;;6.47;3.93;;;;;;;;;;5105822;28;20455;-64
2023/03/15 08:42:27;;;;;;;6.83;3.83;;;;;;;;;;5112241;28;20482;-65
2023/03/15 08:44:58;;;;;;;5.53;3.90;;;;;;;;;;5122629;28;20450;-65
2023/03/15 08:47:26;;;;;;;7.73;3.40;;;;;;;;;;5103463;28;20493;-64
2023/03/15 08:49:53;;;;;;;9.83;5.00;;;;;;;;;;5096870;28;20475;-66
2023/03/15 08:52:20;;;;;;;12.83;4.50;;;;;;;;;;5102274;28;20483;-65
2023/03/15 08:54:46;;;;;;;6.50;4.23;;;;;;;;;;5118527;28;20458;-66
2023/03/15 08:57:13;;;;;;;12.10;4.60;;;;;;;;;;5121094;28;20502;-65
2023/03/15 08:59:39;;;;;;;11.90;3.30;;;;;;;;;;5111635;28;20449;-65
2023/03/15 09:02:06;;;;;;;5.50;3.17;;;;;;;;;;5111522;28;20517;-64
2023/03/15 09:04:33;;;;;;;9.60;4.70;;;;;;;;;;5113958;28;20446;-65
2023/03/15 09:07:00;;;;;;;15.57;4.13;;;;;;;;;;5121446;28;20474;-64
2023/03/15 09:09:27;;;;;;;6.73;3.40;;;;;;;;;;5108847;28;20490;-66
2023/03/15 09:11:54;;;;;;;11.13;3.97;;;;;;;;;;5096263;28;20484;-65
2023/03/15 09:14:20;;;;;;;5.40;3.80;;;;;;;;;;5097950;28;20456;-64
2023/03/15 09:16:47;;;;;;;12.30;4.07;;;;;;;;;;5097952;28;20520;-64
2023/03/15 09:19:13;;;;;;;10.83;4.57;;;;;;;;;;5097573;28;20494;-64
2023/03/15 09:21:43;;;;;;;6.50;4.23;;;;;;;;;;5113070;28;20524;-66
2023/03/15 09:24:10;;;;;;;9.23;3.90;;;;;;;;;;5106255;28;20507;-66
2023/03/15 09:26:36;;;;;;;8.93;3.77;;;;;;;;;;5101803;28;20499;-67
2023/03/15 09:29:03;;;;;;;8.20;3.83;;;;;;;;;;5113347;28;20446;-65
2023/03/15 09:31:30;;;;;;;8.60;3.20;;;;;;;;;;5117079;28;20471;-65
2023/03/15 09:33:57;;;;;;;7.07;3.80;;;;;;;;;;5110811;28;20515;-65
2023/03/15 09:36:23;;;;;;;11.23;3.60;;;;;;;;;;5097307;28;20483;-65
2023/03/15 09:38:51;;;;;;;8.60;3.37;;;;;;;;;;5104310;28;20466;-65
2023/03/15 09:41:25;;;;;;;8.40;3.43;;;;;;;;;;5121161;28;20471;-65
2023/03/15 09:43:59;;;;;;;6.30;3.47;;;;;;;;;;5117091;28;20458;-65
2023/03/15 09:46:29;;;;;;;7.83;3.00;;;;;;;;;;5120443;28;20826;-66
2023/03/15 09:48:59;;;;;;;6.00;2.77;;;;;;;;;;5121923;28;20438;-66
2023/03/15 09:51:34;;;;;;;4.83;2.70;;;;;;;;;;5120883;28;20489;-65
2023/03/15 09:54:04;;;;;;;11.57;3.30;;;;;;;;;;5120822;28;20466;-65
2023/03/15 09:56:32;;;;;;;6.10;3.57;;;;;;;;;;5120880;28;20565;-66
2023/03/15 09:59:00;;;;;;;7.33;2.93;;;;;;;;;;5120488;28;20485;-65
2023/03/15 10:01:29;;;;;;;7.30;3.00;;;;;;;;;;5109326;28;20470;-65
2023/03/15 10:03:56;;;;;;;8.00;3.03;;;;;;;;;;5108299;28;20529;-65
2023/03/15 10:06:26;;;;;;;7.13;2.93;;;;;;;;;;5120353;28;20471;-65
2023/03/15 10:08:54;;;;;;;5.60;3.10;;;;;;;;;;5120930;28;20438;-65
2023/03/15 10:11:29;;;;;;;5.70;2.80;;;;;;;;;;5120664;28;20484;-65
2023/03/15 10:14:07;;;;;;;10.63;3.07;;;;;;;;;;5120207;28;20450;-65
2023/03/15 10:16:39;;;;;;;6.03;2.67;;;;;;;;;;5120275;28;20468;-65
2023/03/15 10:19:12;;;;;;;4.90;2.43;;;;;;;;;;5119627;28;20473;-65
2023/03/15 10:21:41;;;;;;;10.13;3.30;;;;;;;;;;5119896;28;21029;-66
2023/03/15 10:24:13;;;;;;;5.00;2.80;;;;;;;;;;5104230;28;20451;-65
2023/03/15 10:26:43;;;;;;;5.13;2.60;;;;;;;;;;5108250;28;20482;-65
2023/03/15 10:29:12;;;;;;;7.80;2.53;;;;;;;;;;5120471;28;20446;-66
2023/03/15 10:31:40;;;;;;;4.37;2.60;;;;;;;;;;5120021;28;20533;-67
2023/03/15 10:34:06;;;;;;;5.83;2.53;;;;;;;;;;5119468;28;20477;-66
2023/03/15 10:36:32;;;;;;;7.20;2.60;;;;;;;;;;5114698;28;20504;-67
2023/03/15 10:38:59;;;;;;;4.03;1.90;;;;;;;;;;5111448;28;20519;-66
2023/03/15 10:41:29;;;;;;;5.50;2.10;;;;;;;;;;5120195;28;20508;-66
2023/03/15 10:43:58;;;;;;;3.77;2.40;;;;;;;;;;5113727;28;20474;-66
2023/03/15 10:46:25;;;;;;;6.73;3.00;;;;;;;;;;5119610;28;20470;-66
2023/03/15 10:48:57;;;;;;;5.10;2.37;;;;;;;;;;5110349;28;20505;-66
2023/03/15 10:51:25;;;;;;;3.47;2.10;;;;;;;;;;5100589;28;20549;-66
2023/03/15 10:53:53;;;;;;;3.50;1.83;;;;;;;;;;5115181;28;20519;-66
2023/03/15 10:56:24;;;;;;;8.80;2.23;;;;;;;;;;5119247;28;20556;-66
2023/03/15 10:58:51;;;;;;;6.83;2.30;;;;;;;;;;5119362;28;20478;-66
2023/03/15 11:01:24;;;;;;;3.83;1.70;;;;;;;;;;5108840;28;20495;-66
2023/03/15 11:04:04;;;;;;;5.50;2.03;;;;;;;;;;5102717;28;21027;-65
2023/03/15 11:06:37;;;;;;;5.97;2.40;;;;;;;;;;5090090;28;20513;-65
2023/03/15 11:09:16;;;;;;;4.50;1.57;;;;;;;;;;5100215;28;20450;-66
2023/03/15 11:11:53;;;;;;;4.23;1.67;;;;;;;;;;5098862;28;20550;-65
2023/03/15 11:14:20;;;;;;;5.60;1.63;;;;;;;;;;5099489;28;20794;-65
2023/03/15 11:16:49;;;;;;;5.03;1.63;;;;;;;;;;5096192;28;20498;-65
2023/03/15 11:19:16;;;;;;;3.97;1.70;;;;;;;;;;5100237;28;20520;-65
2023/03/15 11:21:44;;;;;;;6.70;2.07;;;;;;;;;;5091412;28;20491;-66
2023/03/15 11:24:19;;;;;;;6.10;1.60;;;;;;;;;;5091162;28;20482;-65
2023/03/15 11:26:50;;;;;;;5.00;1.93;;;;;;;;;;5093853;28;20990;-66
2023/03/15 11:29:20;;;;;;;2.93;1.53;;;;;;;;;;5089088;28;20494;-65
2023/03/15 11:31:48;;;;;;;4.57;2.23;;;;;;;;;;5094486;28;20510;-66
2023/03/15 11:34:20;;;;;;;4.17;1.77;;;;;;;;;;5093517;28;20483;-65
2023/03/15 11:36:50;;;;;;;4.57;1.70;;;;;;;;;;5086662;28;20471;-65
2023/03/15 11:39:24;;;;;;;3.70;1.67;;;;;;;;;;5093567;28;20565;-65
2023/03/15 11:41:52;;;;;;;4.83;1.60;;;;;;;;;;5091052;28;20471;-65
2023/03/15 11:44:25;;;;;;;3.80;2.10;;;;;;;;;;5088286;28;20476;-65
2023/03/15 11:46:57;;;;;;;5.73;1.73;;;;;;;;;;5093405;28;20491;-65
2023/03/15 11:49:29;;;;;;;5.83;2.07;;;;;;;;;;5093019;28;20436;-65
2023/03/15 11:51:56;;;;;;;4.50;1.87;;;;;;;;;;5097734;28;20517;-65
2023/03/15 11:54:24;;;;;;;2.60;1.60;;;;;;;;;;5099085;28;20512;-65
2023/03/15 11:56:52;;;;;;;3.27;1.47;;;;;;;;;;5095039;28;20579;-65
2023/03/15 11:59:20;;;;;;;3.20;1.47;;;;;;;;;;5097243;28;20472;-66
2023/03/15 12:01:48;;;;;;;3.80;1.67;;;;;;;;;;5101952;28;20479;-65
2023/03/15 12:04:36;;;;;;;5.33;1.40;;;;;;;;;;5102509;28;20488;-66
2023/03/15 12:07:04;;;;;;;6.10;1.67;;;;;;;;;;5100489;28;20478;-65
2023/03/15 12:09:41;;;;;;;4.83;1.93;;;;;;;;;;5102771;28;20480;-66
2023/03/15 12:12:22;;;;;;;4.83;1.50;;;;;;;;;;5085979;28;20561;-65
2023/03/15 12:14:48;;;;;;;3.30;1.50;;;;;;;;;;5100589;28;20467;-66
2023/03/15 12:17:34;;;;;;;6.27;1.27;;;;;;;;;;5096169;28;20484;-65
2023/03/15 12:20:07;;;;;;;5.63;1.27;;;;;;;;;;5082314;28;20503;-66
2023/03/15 12:22:34;;;;;;;3.20;1.63;;;;;;;;;;5090069;28;20491;-66
2023/03/15 12:25:05;;;;;;;3.80;1.40;;;;;;;;;;5100643;28;20452;-66
2023/03/15 12:27:35;;;;;;;2.60;1.23;;;;;;;;;;5098701;28;20544;-66
2023/03/15 12:30:02;;;;;;;5.07;1.77;;;;;;;;;;5107320;28;20451;-65
2023/03/15 12:32:29;;;;;;;3.23;1.50;;;;;;;;;;5105353;28;20530;-64
2023/03/15 12:34:56;;;;;;;2.53;1.50;;;;;;;;;;5103815;28;20481;-64
2023/03/15 12:37:27;;;;;;;2.40;1.27;;;;;;;;;;5113894;28;20507;-65
2023/03/15 12:40:00;;;;;;;2.43;1.47;;;;;;;;;;5107413;28;20495;-65
2023/03/15 12:42:45;;;;;;;3.03;1.70;;;;;;;;;;5109376;28;20994;-64
2023/03/15 12:45:30;;;;;;;3.33;1.50;;;;;;;;;;5088190;28;20455;-66
2023/03/15 12:48:18;;;;;;;3.70;1.67;;;;;;;;;;5103481;28;20662;-65
2023/03/15 12:50:51;;;;;;;3.63;1.37;;;;;;;;;;5114240;28;20482;-66
2023/03/15 12:53:21;;;;;;;5.50;1.60;;;;;;;;;;5093964;28;20515;-65
2023/03/15 12:55:48;;;;;;;5.23;2.10;;;;;;;;;;5104537;28;20558;-66
2023/03/15 12:58:16;;;;;;;6.83;1.37;;;;;;;;;;5108758;28;20482;-65
2023/03/15 13:00:43;;;;;;;3.53;1.40;;;;;;;;;;5101701;28;20488;-65
2023/03/15 13:03:15;;;;;;;5.93;2.20;;;;;;;;;;5105801;28;20550;-66
2023/03/15 13:05:47;;;;;;;1.20;1.10;;;;;;;;;;5120775;28;20467;-65
2023/03/15 13:08:19;;;;;;;4.43;1.40;;;;;;;;;;5114169;28;20440;-66
2023/03/15 13:10:52;;;;;;;4.03;1.47;;;;;;;;;;5096460;28;20476;-65
2023/03/15 13:13:25;;;;;;;6.63;2.00;;;;;;;;;;5091527;28;20459;-65
2023/03/15 13:15:58;;;;;;;3.67;1.30;;;;;;;;;;5093301;28;20529;-66
2023/03/15 13:18:25;;;;;;;5.20;1.67;;;;;;;;;;5104751;28;20529;-65
2023/03/15 13:20:57;;;;;;;4.10;1.57;;;;;;;;;;5100053;28;20475;-65
2023/03/15 13:23:26;;;;;;;7.87;1.83;;;;;;;;;;5117321;28;20534;-66
2023/03/15 13:26:14;;;;;;;3.37;1.60;;;;;;;;;;5111303;28;20982;-64
2023/03/15 13:28:46;;;;;;;4.37;1.33;;;;;;;;;;5107459;28;20465;-65
2023/03/15 13:31:16;;;;;;;2.03;1.40;;;;;;;;;;5109060;28;20479;-66
2023/03/15 13:33:46;;;;;;;2.30;1.50;;;;;;;;;;5106323;28;20455;-65
2023/03/15 13:36:14;;;;;;;5.00;1.40;;;;;;;;;;5099239;28;20514;-66
2023/03/15 13:38:42;;;;;;;3.27;1.20;;;;;;;;;;5100353;28;20467;-66
2023/03/15 13:41:17;;;;;;;4.47;1.67;;;;;;;;;;5114780;28;20504;-66
2023/03/15 13:43:44;;;;;;;2.33;1.20;;;;;;;;;;5120237;28;20505;-64
2023/03/15 13:46:10;;;;;;;2.90;1.60;;;;;;;;;;5120934;28;20519;-65
2023/03/15 13:48:37;;;;;;;2.07;1.40;;;;;;;;;;5120813;28;20426;-65
2023/03/15 13:51:05;;;;;;;7.07;1.53;;;;;;;;;;5118946;28;20494;-65
2023/03/15 13:53:33;;;;;;;2.50;1.70;;;;;;;;;;5109618;28;20519;-65
2023/03/15 13:56:00;;;;;;;3.67;1.30;;;;;;;;;;5100674;28;20467;-65
2023/03/15 13:58:28;;;;;;;4.53;1.13;;;;;;;;;;5108026;28;20511;-66
2023/03/15 14:01:00;;;;;;;4.67;1.77;;;;;;;;;;5119237;28;20507;-65
2023/03/15 14:03:27;;;;;;;3.67;1.50;;;;;;;;;;5120075;28;20978;-66
2023/03/15 14:05:57;;;;;;;3.80;1.37;;;;;;;;;;5118659;28;20554;-66
2023/03/15 14:08:26;;;;;;;3.93;1.40;;;;;;;;;;5121150;28;20461;-65
2023/03/15 14:11:04;;;;;;;3.33;1.27;;;;;;;;;;5119072;27;20557;-64
2023/03/15 14:13:32;;;;;;;3.80;1.60;;;;;;;;;;5117001;28;20450;-64
2023/03/15 14:16:00;;;;;;;2.00;1.30;;;;;;;;;;5120144;28;20494;-64
2023/03/15 14:18:30;;;;;;;5.33;2.10;;;;;;;;;;5120142;28;20442;-65
2023/03/15 14:20:58;;;;;;;5.10;1.53;;;;;;;;;;5119428;28;20779;-66
2023/03/15 14:23:26;;;;;;;4.67;1.53;;;;;;;;;;5120339;28;20498;-66
2023/03/15 14:25:53;;;;;;;3.30;1.57;;;;;;;;;;5119577;28;20479;-65
2023/03/15 14:28:20;;;;;;;2.73;1.23;;;;;;;;;;5118460;28;20489;-66
2023/03/15 14:30:53;;;;;;;2.90;1.40;;;;;;;;;;5098949;28;20483;-66
2023/03/15 14:33:30;;;;;;;2.50;1.20;;;;;;;;;;5116816;28;20477;-66
2023/03/15 14:35:58;;;;;;;2.90;1.53;;;;;;;;;;5119636;28;20467;-65
2023/03/15 14:38:25;;;;;;;4.17;1.60;;;;;;;;;;5110063;28;20439;-65
2023/03/15 14:40:53;;;;;;;4.43;1.57;;;;;;;;;;5085821;28;20499;-65
2023/03/15 14:43:19;;;;;;;8.73;1.27;;;;;;;;;;5108852;28;20477;-65
2023/03/15 14:45:46;;;;;;;3.37;1.53;;;;;;;;;;5097891;28;20487;-64
2023/03/15 14:48:15;;;;;;;5.57;2.10;;;;;;;;;;5090704;28;20474;-65